Time;durP1;ratioP1;P1;durP2;ratioP2;P2;SDS_P1;SDS_P2;PMS_P1;PMS_P2;Temp;Humidity;BMP_temperature;BMP_pressure;BME280_temperature;BME280_humidity;BME280_pressure;Samples;Min_cycle;Max_cycle;Signal;HPM_P1;HPM_P2
2023/05/07 00:02:03;;;;;;;4.45;1.48;;;;;;;15.95;97.20;100974.13;7348365;19;20800;-63
2023/05/07 00:04:36;;;;;;;6.00;1.30;;;;;;;15.93;96.84;100978.00;7347309;19;20010;-63
2023/05/07 00:07:03;;;;;;;;;;;;;;;15.92;97.47;100982.47;7349606;19;20014;-65
2023/05/07 00:09:30;;;;;;;8.80;2.13;;;;;;;15.92;97.95;100974.53;7353608;19;19938;-63
2023/05/07 00:11:58;;;;;;;4.35;1.45;;;;;;;15.94;98.65;100969.88;7348279;19;20518;-64
2023/05/07 00:14:25;;;;;;;2.45;1.55;;;;;;;15.94;98.19;100977.81;7352030;19;20312;-64
2023/05/07 00:16:52;;;;;;;6.43;1.88;;;;;;;15.93;98.07;100968.22;7354559;19;20015;-64
2023/05/07 00:19:20;;;;;;;5.55;1.63;;;;;;;15.91;97.59;100978.16;7352339;19;20932;-64
2023/05/07 00:21:47;;;;;;;5.65;1.77;;;;;;;15.90;97.60;100967.75;7351078;19;20331;-64
2023/05/07 00:24:14;;;;;;;3.35;1.45;;;;;;;15.88;97.56;100975.06;7351397;19;20018;-65
2023/05/07 00:26:41;;;;;;;7.18;2.45;;;;;;;15.89;98.20;100982.84;7346907;19;20544;-65
2023/05/07 00:29:09;;;;;;;3.75;1.58;;;;;;;15.88;97.91;100978.56;7351377;19;20019;-64
2023/05/07 00:31:36;;;;;;;6.55;1.77;;;;;;;15.90;98.48;100968.56;7344155;19;20018;-63
2023/05/07 00:34:03;;;;;;;4.78;1.98;;;;;;;15.89;98.50;100971.41;7347945;19;20094;-64
2023/05/07 00:36:30;;;;;;;3.65;1.40;;;;;;;15.83;98.25;100970.31;7346507;19;20018;-64
2023/05/07 00:39:00;;;;;;;4.35;1.80;;;;;;;15.78;97.66;100968.22;7354290;19;20022;-64
2023/05/07 00:41:27;;;;;;;8.73;2.75;;;;;;;15.77;97.66;100971.03;7345036;19;20006;-64
2023/05/07 00:43:54;;;;;;;4.90;1.92;;;;;;;15.78;98.29;100970.88;7339770;19;20021;-65
2023/05/07 00:46:22;;;;;;;3.55;1.50;;;;;;;15.77;98.28;100971.88;7342920;19;20476;-64
2023/05/07 00:48:50;;;;;;;7.95;2.70;;;;;;;15.74;97.94;100971.41;7346263;19;20465;-64
2023/05/07 00:51:18;;;;;;;4.50;2.13;;;;;;;15.71;98.02;100972.59;7350205;19;20050;-64
2023/05/07 00:53:46;;;;;;;4.88;1.70;;;;;;;15.70;98.12;100972.78;7350853;19;20018;-65
2023/05/07 00:56:13;;;;;;;7.68;1.77;;;;;;;15.69;97.82;100968.50;7350894;19;20022;-63
2023/05/07 00:58:40;;;;;;;9.15;2.63;;;;;;;15.70;98.16;100972.78;7353606;19;20597;-64
2023/05/07 01:01:08;;;;;;;4.68;2.40;;;;;;;15.70;98.42;100975.41;7352175;19;20102;-64
2023/05/07 01:03:35;;;;;;;6.15;2.90;;;;;;;15.69;97.95;100977.28;7351870;19;20782;-63
2023/05/07 01:06:04;;;;;;;4.53;2.20;;;;;;;15.66;97.64;100977.63;7348557;19;20858;-63
2023/05/07 01:08:34;;;;;;;6.15;2.25;;;;;;;15.62;97.38;100983.47;7351899;19;20015;-66
2023/05/07 01:11:02;;;;;;;6.15;2.50;;;;;;;15.61;97.58;100979.16;7350725;19;20022;-65
2023/05/07 01:13:30;;;;;;;7.13;2.60;;;;;;;15.62;97.78;100986.97;7351958;19;20959;-65
2023/05/07 01:15:57;;;;;;;5.45;2.38;;;;;;;15.63;98.32;100985.13;7347381;19;20960;-63
2023/05/07 01:18:25;;;;;;;7.68;3.13;;;;;;;15.65;98.66;100981.28;7361075;19;20038;-63
2023/05/07 01:20:52;;;;;;;7.00;2.70;;;;;;;15.61;98.01;100985.31;7358572;19;20033;-64
2023/05/07 01:23:20;;;;;;;6.05;2.63;;;;;;;15.61;97.66;100987.13;7352725;19;20024;-64
2023/05/07 01:25:53;;;;;;;5.78;2.72;;;;;;;15.60;98.02;100993.44;7352785;19;20041;-65
2023/05/07 01:28:20;;;;;;;5.93;3.47;;;;;;;15.64;98.47;100994.75;7352091;19;20018;-64
2023/05/07 01:30:52;;;;;;;7.03;3.10;;;;;;;15.64;98.69;100986.78;7348431;19;20036;-65
2023/05/07 01:33:21;;;;;;;4.78;2.92;;;;;;;15.64;98.44;100992.91;7352176;19;20018;-64
2023/05/07 01:35:52;;;;;;;8.32;2.97;;;;;;;15.63;98.61;100991.25;7352220;19;20871;-64
2023/05/07 01:38:22;;;;;;;6.32;2.38;;;;;;;15.64;98.26;100990.25;7354431;19;20464;-64
2023/05/07 01:40:50;;;;;;;29.92;4.22;;;;;;;15.61;98.22;100993.25;7349362;19;20014;-64
2023/05/07 01:43:17;;;;;;;7.32;3.08;;;;;;;15.59;98.04;100992.63;7361333;19;20022;-64
2023/05/07 01:45:45;;;;;;;7.60;3.22;;;;;;;15.58;98.17;100985.69;7355806;19;20263;-64
2023/05/07 01:48:14;;;;;;;289.05;14.95;;;;;;;15.64;100.00;100979.66;7356624;19;20014;-64
2023/05/07 01:50:43;;;;;;;55.80;7.75;;;;;;;15.64;100.00;100973.53;7353451;19;20014;-64
2023/05/07 01:53:10;;;;;;;55.25;7.13;;;;;;;15.61;100.00;100982.66;7351001;19;20028;-66
2023/05/07 01:55:37;;;;;;;9.73;4.53;;;;;;;15.60;100.00;100990.78;7351179;19;20266;-64
2023/05/07 01:58:04;;;;;;;16.33;5.25;;;;;;;15.56;100.00;100987.69;7354203;19;20021;-64
2023/05/07 02:00:31;;;;;;;9.05;4.93;;;;;;;15.51;100.00;100982.09;7347939;19;20010;-64
2023/05/07 02:02:59;;;;;;;18.60;5.10;;;;;;;15.49;100.00;100986.72;7351650;19;20033;-64
2023/05/07 02:05:26;;;;;;;16.05;5.25;;;;;;;15.47;100.00;100983.44;7350995;19;21033;-65
2023/05/07 02:07:53;;;;;;;10.32;5.03;;;;;;;15.41;100.00;100982.31;7357602;19;20010;-65
2023/05/07 02:10:21;;;;;;;10.02;5.35;;;;;;;15.44;100.00;100990.94;7353378;19;20022;-64
2023/05/07 02:12:48;;;;;;;12.98;5.88;;;;;;;15.41;99.88;100992.94;7352790;19;20044;-65
2023/05/07 02:15:15;;;;;;;23.52;6.07;;;;;;;15.40;99.99;100998.41;7350500;19;20094;-64
2023/05/07 02:17:48;;;;;;;24.42;6.95;;;;;;;15.43;100.00;100994.59;7353552;19;20006;-65
2023/05/07 02:20:16;;;;;;;20.38;6.72;;;;;;;15.45;100.00;100995.22;7354287;19;20007;-65
2023/05/07 02:22:43;;;;;;;12.50;6.45;;;;;;;15.41;100.00;101000.88;7357771;19;20018;-64
2023/05/07 02:25:11;;;;;;;11.73;6.00;;;;;;;15.38;100.00;100998.59;7353642;19;20077;-64
2023/05/07 02:27:38;;;;;;;13.32;6.57;;;;;;;15.32;99.88;100996.66;7350036;19;20025;-65
2023/05/07 02:30:06;;;;;;;35.17;9.02;;;;;;;15.34;100.00;100997.28;7351136;19;20105;-64
2023/05/07 02:32:33;;;;;;;16.00;7.85;;;;;;;15.34;100.00;100996.47;7354211;19;20586;-63
2023/05/07 02:35:00;;;;;;;14.00;7.68;;;;;;;15.28;100.00;100992.72;7353513;19;20074;-64
2023/05/07 02:37:27;;;;;;;53.58;10.88;;;;;;;15.26;100.00;100988.59;7355744;19;20026;-65
2023/05/07 02:39:54;;;;;;;18.25;7.97;;;;;;;15.25;100.00;100989.59;7356310;19;20029;-64
2023/05/07 02:42:22;;;;;;;16.67;7.93;;;;;;;15.25;99.89;100990.41;7358957;19;20102;-64
2023/05/07 02:44:49;;;;;;;16.60;7.70;;;;;;;15.24;99.92;101006.50;7353261;19;20010;-64
2023/05/07 02:47:16;;;;;;;14.18;7.82;;;;;;;15.23;99.77;101005.69;7357397;19;20609;-64
2023/05/07 02:49:43;;;;;;;13.88;7.22;;;;;;;15.22;99.73;101003.22;7354400;19;20613;-65
2023/05/07 02:52:11;;;;;;;14.90;6.93;;;;;;;15.20;99.67;101007.88;7356637;19;20029;-64
2023/05/07 02:54:38;;;;;;;17.13;8.55;;;;;;;15.18;99.74;101007.22;7356476;19;20405;-64
2023/05/07 02:57:05;;;;;;;52.20;10.23;;;;;;;15.16;100.00;101007.41;7358087;19;20018;-64
2023/05/07 02:59:32;;;;;;;18.58;8.60;;;;;;;15.20;100.00;101010.50;7355178;19;20026;-65
2023/05/07 03:01:59;;;;;;;14.15;7.05;;;;;;;15.17;100.00;101008.22;7352083;19;20014;-65
2023/05/07 03:04:27;;;;;;;16.25;8.25;;;;;;;15.14;100.00;101004.09;7354632;19;20018;-64
2023/05/07 03:06:54;;;;;;;17.35;8.52;;;;;;;15.14;99.93;101005.91;7356357;19;20122;-65
2023/05/07 03:09:21;;;;;;;17.50;7.80;;;;;;;15.12;99.66;101003.47;7355889;19;20076;-64
2023/05/07 03:11:49;;;;;;;16.05;8.25;;;;;;;15.10;99.54;101001.97;7354451;19;20097;-65
2023/05/07 03:14:16;;;;;;;15.20;7.57;;;;;;;15.10;99.83;101012.59;7353094;19;20776;-64
2023/05/07 03:16:43;;;;;;;17.08;8.00;;;;;;;15.11;100.00;101001.81;7355964;19;20011;-64
2023/05/07 03:19:10;;;;;;;16.73;8.40;;;;;;;15.12;100.00;101005.28;7354243;19;20025;-64
2023/05/07 03:21:38;;;;;;;18.63;9.40;;;;;;;15.13;100.00;101005.13;7352717;19;20022;-64
2023/05/07 03:24:05;;;;;;;23.33;10.95;;;;;;;15.15;100.00;101003.09;7357563;19;20015;-64
2023/05/07 03:26:32;;;;;;;20.27;9.40;;;;;;;15.18;100.00;101004.59;7352476;19;20069;-63
2023/05/07 03:29:00;;;;;;;23.10;10.68;;;;;;;15.18;100.00;101009.88;7355137;19;20025;-64
2023/05/07 03:31:27;;;;;;;20.67;9.48;;;;;;;15.17;100.00;101014.38;7350807;19;20060;-64
2023/05/07 03:33:57;;;;;;;63.53;10.75;;;;;;;15.19;100.00;101017.63;7355262;19;20501;-68
2023/05/07 03:36:26;;;;;;;22.55;9.13;;;;;;;15.18;100.00;101020.50;7350581;19;20054;-63
2023/05/07 03:38:53;;;;;;;27.25;9.02;;;;;;;15.20;100.00;101023.78;7356814;19;20014;-64
2023/05/07 03:41:21;;;;;;;18.58;8.05;;;;;;;15.20;100.00;101019.28;7354078;19;21678;-69
2023/05/07 03:43:48;;;;;;;21.38;10.45;;;;;;;15.20;100.00;101021.13;7355355;19;20036;-63
2023/05/07 03:46:15;;;;;;;16.35;8.00;;;;;;;15.18;100.00;101029.28;7351526;19;20011;-64
2023/05/07 03:48:42;;;;;;;26.90;9.13;;;;;;;15.16;100.00;101036.56;7355620;19;20037;-64
2023/05/07 03:51:10;;;;;;;16.35;7.30;;;;;;;15.16;100.00;101025.13;7351254;19;20010;-65
2023/05/07 03:53:37;;;;;;;18.70;7.75;;;;;;;15.14;100.00;101035.91;7355091;19;20049;-63
2023/05/07 03:56:05;;;;;;;24.15;9.10;;;;;;;15.15;100.00;101032.25;7354671;19;20021;-63
2023/05/07 03:58:32;;;;;;;15.65;6.85;;;;;;;15.16;100.00;101035.75;7354899;19;20037;-64
2023/05/07 04:00:59;;;;;;;16.25;7.10;;;;;;;15.14;100.00;101043.84;7349920;19;20007;-63
2023/05/07 04:03:26;;;;;;;20.27;7.97;;;;;;;15.10;100.00;101039.09;7348992;19;20014;-64
2023/05/07 04:05:54;;;;;;;18.05;7.88;;;;;;;15.07;100.00;101042.94;7353858;19;20456;-64
2023/05/07 04:08:21;;;;;;;17.77;8.43;;;;;;;15.04;100.00;101045.91;7356804;19;20457;-64
2023/05/07 04:10:54;;;;;;;15.63;6.88;;;;;;;15.06;100.00;101053.69;7355726;19;20022;-64
2023/05/07 04:13:21;;;;;;;;;;;;;;;15.05;100.00;101047.56;7355937;19;20561;-62
2023/05/07 04:15:49;;;;;;;19.67;7.07;;;;;;;15.04;100.00;101047.75;7354842;19;21585;-64
2023/05/07 04:18:16;;;;;;;14.93;7.15;;;;;;;15.02;100.00;101047.94;7354106;19;20209;-63
2023/05/07 04:20:43;;;;;;;15.10;6.90;;;;;;;14.99;100.00;101054.41;7349275;19;20023;-64
2023/05/07 04:23:10;;;;;;;16.67;7.75;;;;;;;15.03;100.00;101054.91;7353322;19;20018;-65
2023/05/07 04:25:38;;;;;;;17.95;6.47;;;;;;;15.07;100.00;101058.00;7356045;19;20050;-64
2023/05/07 04:28:05;;;;;;;14.93;6.88;;;;;;;15.08;100.00;101060.50;7363219;19;20308;-64
2023/05/07 04:30:33;;;;;;;15.20;7.57;;;;;;;15.06;100.00;101064.31;7357176;19;20018;-65
2023/05/07 04:33:00;;;;;;;17.60;7.43;;;;;;;15.05;100.00;101066.13;7360137;19;20036;-64
2023/05/07 04:35:28;;;;;;;16.70;7.97;;;;;;;15.08;100.00;101070.25;7358984;19;20623;-65
2023/05/07 04:37:55;;;;;;;15.40;7.13;;;;;;;15.11;100.00;101073.38;7361150;19;20059;-64
2023/05/07 04:40:22;;;;;;;15.98;7.18;;;;;;;15.11;100.00;101068.06;7359102;19;20035;-65
2023/05/07 04:42:51;;;;;;;17.85;6.95;;;;;;;15.06;100.00;101073.09;7358309;19;20043;-65
2023/05/07 04:45:18;;;;;;;15.93;7.25;;;;;;;15.10;100.00;101074.38;7357176;19;20056;-65
2023/05/07 04:47:45;;;;;;;14.80;6.70;;;;;;;15.13;100.00;101066.09;7357855;19;20022;-65
2023/05/07 04:50:13;;;;;;;14.30;6.68;;;;;;;15.14;100.00;101077.50;7360204;19;20806;-65
2023/05/07 04:52:40;;;;;;;16.75;7.22;;;;;;;15.12;100.00;101077.69;7358230;19;20777;-65
2023/05/07 04:55:08;;;;;;;17.80;7.30;;;;;;;15.15;100.00;101077.31;7362773;19;20498;-65
2023/05/07 04:57:35;;;;;;;23.10;8.48;;;;;;;15.18;100.00;101079.63;7359956;19;20813;-65
2023/05/07 05:00:04;;;;;;;14.95;7.00;;;;;;;15.20;100.00;101079.44;7355500;19;20011;-69
2023/05/07 05:02:31;;;;;;;15.70;6.65;;;;;;;15.21;100.00;101081.91;7362081;19;20126;-65
2023/05/07 05:04:58;;;;;;;17.10;7.15;;;;;;;15.22;100.00;101086.22;7357866;19;20019;-65
2023/05/07 05:07:26;;;;;;;14.93;6.93;;;;;;;15.21;100.00;101089.88;7358318;19;20018;-65
2023/05/07 05:09:53;;;;;;;15.00;7.43;;;;;;;15.21;100.00;101094.34;7357278;19;20011;-65
2023/05/07 05:12:20;;;;;;;15.95;7.35;;;;;;;15.22;100.00;101098.66;7356332;19;21582;-65
2023/05/07 05:14:47;;;;;;;15.43;6.97;;;;;;;15.21;100.00;101086.41;7357050;19;20019;-66
2023/05/07 05:17:15;;;;;;;15.45;6.45;;;;;;;15.21;100.00;101097.84;7358993;19;20577;-65
2023/05/07 05:19:42;;;;;;;14.50;6.88;;;;;;;15.22;100.00;101104.78;7359689;19;20692;-65
2023/05/07 05:22:09;;;;;;;15.50;6.18;;;;;;;15.23;100.00;101100.31;7357489;19;20816;-65
2023/05/07 05:24:36;;;;;;;14.15;6.40;;;;;;;15.22;100.00;101107.44;7357735;19;20143;-65
2023/05/07 05:27:04;;;;;;;15.57;6.50;;;;;;;15.21;100.00;101092.53;7358425;19;20007;-63
2023/05/07 05:29:32;;;;;;;15.73;6.43;;;;;;;15.22;100.00;101103.97;7355102;19;20051;-64
2023/05/07 05:31:59;;;;;;;11.00;5.30;;;;;;;15.23;100.00;101098.50;7356826;19;20026;-64
2023/05/07 05:34:27;;;;;;;9.73;5.07;;;;;;;15.26;100.00;101103.44;7359215;19;20022;-63
2023/05/07 05:36:55;;;;;;;10.98;4.85;;;;;;;15.27;100.00;101097.13;7357639;19;20018;-64
2023/05/07 05:39:23;;;;;;;10.05;5.00;;;;;;;15.29;100.00;101104.88;7358422;19;20367;-67
2023/05/07 05:41:50;;;;;;;12.68;5.47;;;;;;;15.30;100.00;101109.19;7358867;19;20041;-64
2023/05/07 05:44:17;;;;;;;13.27;5.50;;;;;;;15.28;100.00;101109.41;7357397;19;20015;-64
2023/05/07 05:46:44;;;;;;;12.95;5.10;;;;;;;15.26;100.00;101107.91;7359084;19;20640;-64
2023/05/07 05:49:11;;;;;;;9.93;4.90;;;;;;;15.25;100.00;101107.06;7358819;19;20018;-66
2023/05/07 05:51:39;;;;;;;10.75;4.47;;;;;;;15.24;100.00;101104.59;7355276;19;20018;-64
2023/05/07 05:54:06;;;;;;;8.80;3.90;;;;;;;15.23;100.00;101114.41;7357297;19;20018;-65
2023/05/07 05:56:33;;;;;;;8.30;3.50;;;;;;;15.23;100.00;101124.16;7358167;19;20018;-64
2023/05/07 05:59:01;;;;;;;9.82;3.75;;;;;;;15.23;99.91;101130.31;7358210;19;20047;-64
2023/05/07 06:01:28;;;;;;;8.20;3.92;;;;;;;15.23;99.81;101129.47;7359027;19;20043;-66
2023/05/07 06:03:56;;;;;;;12.43;4.93;;;;;;;15.29;100.00;101126.94;7361577;19;20098;-64
2023/05/07 06:06:23;;;;;;;16.30;6.00;;;;;;;15.34;100.00;101126.41;7356015;19;20010;-63
2023/05/07 06:08:50;;;;;;;10.65;4.75;;;;;;;15.36;100.00;101132.34;7355681;19;20025;-65
2023/05/07 06:11:17;;;;;;;7.07;3.67;;;;;;;15.38;100.00;101133.84;7359198;19;20010;-64
2023/05/07 06:13:45;;;;;;;9.90;3.58;;;;;;;15.40;100.00;101136.31;7356499;19;20010;-65
2023/05/07 06:16:12;;;;;;;9.65;3.95;;;;;;;15.41;100.00;101140.59;7355748;19;21873;-64
2023/05/07 06:18:39;;;;;;;7.65;3.42;;;;;;;15.42;99.85;101144.91;7358097;19;20065;-65
2023/05/07 06:21:07;;;;;;;8.88;3.88;;;;;;;15.43;99.59;101146.56;7358614;19;20018;-64
2023/05/07 06:23:34;;;;;;;7.78;2.58;;;;;;;15.43;99.68;101141.28;7359761;19;20044;-65
2023/05/07 06:26:02;;;;;;;6.97;3.42;;;;;;;15.45;99.74;101151.69;7356475;19;20110;-64
2023/05/07 06:28:35;;;;;;;5.70;3.13;;;;;;;15.46;99.58;101151.50;7360428;19;20016;-65
2023/05/07 06:31:09;;;;;;;8.60;2.80;;;;;;;15.44;98.73;101158.81;7355102;19;21741;-65
2023/05/07 06:33:36;;;;;;;7.95;3.35;;;;;;;15.45;98.41;101155.16;7354888;19;20022;-64
2023/05/07 06:36:04;;;;;;;8.32;4.20;;;;;;;15.46;98.40;101150.69;7356346;19;20050;-65
2023/05/07 06:38:31;;;;;;;7.88;3.90;;;;;;;15.49;98.76;101153.81;7356086;19;20102;-65
2023/05/07 06:40:58;;;;;;;8.88;4.32;;;;;;;15.50;98.78;101150.16;7356169;19;20015;-65
2023/05/07 06:43:25;;;;;;;11.60;5.05;;;;;;;15.50;98.89;101162.59;7357029;19;20027;-65
2023/05/07 06:45:53;;;;;;;12.85;5.47;;;;;;;15.50;99.18;101166.06;7352362;19;20455;-64
2023/05/07 06:48:20;;;;;;;11.40;5.15;;;;;;;15.52;99.75;101166.75;7357150;19;20029;-65
2023/05/07 06:50:47;;;;;;;10.95;4.70;;;;;;;15.55;99.76;101161.09;7356357;19;20323;-65
2023/05/07 06:53:14;;;;;;;13.15;6.40;;;;;;;15.56;99.88;101164.56;7354104;19;20022;-65
2023/05/07 06:55:42;;;;;;;13.27;5.60;;;;;;;15.56;99.66;101156.63;7357146;19;20686;-68
2023/05/07 06:58:09;;;;;;;12.77;5.43;;;;;;;15.59;99.82;101165.06;7353607;19;20014;-65
2023/05/07 07:00:36;;;;;;;13.48;5.47;;;;;;;15.62;99.73;101170.00;7357087;19;20019;-64
2023/05/07 07:03:04;;;;;;;12.07;6.60;;;;;;;15.65;99.68;101166.97;7356565;19;20014;-65
2023/05/07 07:05:31;;;;;;;14.40;6.78;;;;;;;15.67;98.44;101166.81;7357116;19;20007;-66
2023/05/07 07:07:58;;;;;;;11.60;6.20;;;;;;;15.71;98.85;101168.94;7353855;19;20014;-65
2023/05/07 07:10:25;;;;;;;11.20;5.57;;;;;;;15.72;98.71;101159.97;7356649;19;20150;-65
2023/05/07 07:12:53;;;;;;;11.80;5.22;;;;;;;15.76;98.31;101161.25;7355975;19;20022;-65
2023/05/07 07:15:20;;;;;;;14.77;5.20;;;;;;;15.78;97.87;101155.78;7355319;19;20167;-64
2023/05/07 07:17:48;;;;;;;10.10;4.40;;;;;;;15.82;97.57;101167.69;7355752;19;20040;-65
2023/05/07 07:20:16;;;;;;;8.82;4.47;;;;;;;15.85;97.56;101162.00;7353363;19;20022;-64
2023/05/07 07:22:44;;;;;;;10.77;4.38;;;;;;;15.85;96.91;101166.53;7352425;19;20014;-65
2023/05/07 07:25:11;;;;;;;9.60;5.03;;;;;;;15.87;96.81;101172.47;7353517;19;20390;-64
2023/05/07 07:27:39;;;;;;;9.98;4.85;;;;;;;15.86;96.56;101179.59;7358010;19;20022;-63
2023/05/07 07:30:07;;;;;;;11.50;5.10;;;;;;;15.86;95.97;101182.25;7353376;19;20030;-66
2023/05/07 07:32:35;;;;;;;9.93;4.32;;;;;;;15.91;96.30;101176.41;7354498;19;21712;-65
2023/05/07 07:35:04;;;;;;;9.32;4.90;;;;;;;15.96;96.21;101182.81;7354987;19;20007;-65
2023/05/07 07:37:31;;;;;;;10.57;4.53;;;;;;;16.00;96.04;101186.75;7358818;19;20512;-65
2023/05/07 07:39:58;;;;;;;9.10;4.85;;;;;;;16.03;95.76;101186.44;7354870;19;20014;-65
2023/05/07 07:42:26;;;;;;;11.52;5.10;;;;;;;16.08;95.67;101186.72;7355410;19;20035;-65
2023/05/07 07:44:53;;;;;;;11.50;5.78;;;;;;;16.13;95.69;101187.00;7349950;19;20029;-64
2023/05/07 07:47:20;;;;;;;11.85;6.03;;;;;;;16.18;95.57;101192.59;7353986;19;20346;-65
2023/05/07 07:49:48;;;;;;;11.25;5.80;;;;;;;16.24;94.97;101189.22;7353578;19;20023;-65
2023/05/07 07:52:15;;;;;;;10.73;5.53;;;;;;;16.30;94.90;101190.34;7354925;19;20037;-64
2023/05/07 07:54:42;;;;;;;10.77;5.43;;;;;;;16.35;94.48;101190.63;7352449;19;20018;-65
2023/05/07 07:57:10;;;;;;;11.65;5.47;;;;;;;16.41;94.58;101194.34;7353292;19;20764;-64
2023/05/07 07:59:37;;;;;;;11.75;5.00;;;;;;;16.44;94.22;101186.88;7355020;19;20010;-65
2023/05/07 08:02:04;;;;;;;8.90;4.47;;;;;;;16.50;94.06;101193.28;7354029;19;20023;-65
2023/05/07 08:04:32;;;;;;;10.77;5.00;;;;;;;16.51;93.33;101200.22;7353623;19;20014;-64
2023/05/07 08:07:00;;;;;;;10.55;4.50;;;;;;;16.52;93.38;101201.88;7354689;19;20037;-64
2023/05/07 08:09:27;;;;;;;9.25;4.00;;;;;;;16.55;92.95;101201.53;7351307;19;20058;-65
2023/05/07 08:11:55;;;;;;;9.20;4.57;;;;;;;16.62;92.76;101202.47;7354685;19;20015;-64
2023/05/07 08:14:22;;;;;;;10.73;5.55;;;;;;;16.70;92.62;101201.56;7354861;19;20097;-65
2023/05/07 08:16:49;;;;;;;10.75;5.13;;;;;;;16.78;91.82;101206.78;7354147;19;20028;-66
2023/05/07 08:19:17;;;;;;;8.60;4.63;;;;;;;16.87;91.55;101210.97;7354163;19;20538;-64
2023/05/07 08:21:44;;;;;;;11.10;4.45;;;;;;;16.99;91.26;101214.81;7350617;19;20057;-64
2023/05/07 08:24:11;;;;;;;6.65;4.18;;;;;;;17.09;91.05;101204.72;7355464;19;20029;-65
2023/05/07 08:26:39;;;;;;;6.75;3.70;;;;;;;17.21;89.52;101207.75;7352788;19;20023;-65
2023/05/07 08:29:07;;;;;;;7.32;4.22;;;;;;;17.35;89.20;101210.38;7354843;19;20449;-65
2023/05/07 08:31:34;;;;;;;8.98;4.38;;;;;;;17.47;88.78;101216.81;7348487;19;20019;-65
2023/05/07 08:34:04;;;;;;;9.20;4.50;;;;;;;17.56;87.86;101217.56;7351489;19;20019;-65
2023/05/07 08:36:34;;;;;;;7.68;4.85;;;;;;;17.64;87.64;101227.28;7351320;19;20095;-64
2023/05/07 08:39:02;;;;;;;8.45;4.63;;;;;;;17.67;87.13;101233.06;7351950;19;20127;-66
2023/05/07 08:41:29;;;;;;;8.38;4.75;;;;;;;17.66;86.97;101226.09;7354705;19;20098;-66
2023/05/07 08:43:59;;;;;;;9.25;4.25;;;;;;;17.66;87.58;101228.75;7350570;19;20021;-65
2023/05/07 08:46:31;;;;;;;8.00;4.45;;;;;;;17.73;87.18;101226.97;7346799;19;20029;-65
2023/05/07 08:48:59;;;;;;;10.15;4.97;;;;;;;17.79;87.78;101226.22;7350418;19;20097;-65
2023/05/07 08:51:27;;;;;;;8.95;4.57;;;;;;;17.87;86.82;101227.94;7349810;19;20017;-64
2023/05/07 08:53:54;;;;;;;8.35;5.07;;;;;;;17.96;86.57;101232.13;7353586;19;20010;-66
2023/05/07 08:56:21;;;;;;;8.38;4.50;;;;;;;18.05;85.65;101228.28;7352907;19;20033;-66
2023/05/07 08:58:49;;;;;;;7.45;4.38;;;;;;;18.16;85.25;101226.97;7351510;19;20489;-65
2023/05/07 09:01:17;;;;;;;6.60;4.07;;;;;;;18.32;85.02;101235.50;7347975;19;20072;-64
2023/05/07 09:03:46;;;;;;;7.68;4.13;;;;;;;18.44;84.46;101235.78;7350303;19;20014;-65
2023/05/07 09:06:13;;;;;;;8.45;3.97;;;;;;;18.54;83.71;101230.16;7350992;19;20003;-65
2023/05/07 09:08:40;;;;;;;7.93;3.92;;;;;;;18.69;83.64;101242.34;7351509;19;20017;-64
2023/05/07 09:11:08;;;;;;;7.38;3.75;;;;;;;18.80;81.93;101247.13;7350777;19;21404;-65
2023/05/07 09:13:35;;;;;;;7.40;4.25;;;;;;;18.88;80.84;101240.81;7355821;19;20054;-65
2023/05/07 09:16:09;;;;;;;6.25;4.00;;;;;;;18.93;80.33;101253.56;7356749;19;20057;-68
2023/05/07 09:18:42;;;;;;;6.78;3.60;;;;;;;18.95;80.82;101251.50;7361071;19;20030;-65
2023/05/07 09:21:10;;;;;;;7.30;4.15;;;;;;;18.94;80.31;101256.03;7358620;19;20033;-65
2023/05/07 09:23:39;;;;;;;7.05;3.53;;;;;;;18.93;80.36;101257.06;7361007;19;20021;-65
2023/05/07 09:26:11;;;;;;;7.15;3.22;;;;;;;18.90;80.86;101253.94;7361152;19;21313;-65
2023/05/07 09:28:41;;;;;;;7.20;3.25;;;;;;;18.85;80.20;101257.19;7356729;19;20415;-65
2023/05/07 09:31:10;;;;;;;6.53;2.63;;;;;;;18.77;79.98;101260.03;7359528;19;20459;-65
2023/05/07 09:33:38;;;;;;;6.93;3.10;;;;;;;18.72;80.29;101260.63;7356279;19;20015;-65
2023/05/07 09:36:07;;;;;;;6.05;2.85;;;;;;;18.69;81.43;101265.53;7356444;19;20043;-65
2023/05/07 09:38:35;;;;;;;5.38;2.35;;;;;;;18.65;81.57;101280.25;7358351;19;20011;-65
2023/05/07 09:41:05;;;;;;;4.53;2.40;;;;;;;18.51;80.01;101273.13;7361269;19;20014;-65
2023/05/07 09:43:36;;;;;;;4.30;2.33;;;;;;;18.44;80.54;101270.41;7359672;19;20034;-66
2023/05/07 09:46:11;;;;;;;5.72;2.90;;;;;;;18.41;81.92;101276.16;7357047;19;20028;-65
2023/05/07 09:48:40;;;;;;;5.88;3.25;;;;;;;18.35;81.48;101276.91;7359018;19;20025;-65
2023/05/07 09:51:21;;;;;;;6.90;3.33;;;;;;;18.30;82.72;101285.47;7361312;19;20138;-65
2023/05/07 09:53:52;;;;;;;5.38;3.20;;;;;;;18.28;82.75;101281.38;7359809;19;20473;-66
2023/05/07 09:56:21;;;;;;;4.70;2.72;;;;;;;18.32;82.58;101280.81;7356818;19;20802;-64
2023/05/07 09:58:51;;;;;;;3.55;2.20;;;;;;;18.33;82.35;101286.97;7355374;19;20687;-65
2023/05/07 10:01:21;;;;;;;8.18;5.05;;;;;;;18.35;82.63;101284.91;7357545;19;20944;-64
2023/05/07 10:03:51;;;;;;;5.68;2.80;;;;;;;18.39;83.25;101286.16;7353707;19;20043;-65
2023/05/07 10:06:20;;;;;;;3.72;2.65;;;;;;;18.43;82.59;101279.44;7357068;19;20010;-66
2023/05/07 10:08:48;;;;;;;3.25;1.75;;;;;;;18.48;82.01;101277.03;7358336;19;20022;-66
2023/05/07 10:11:16;;;;;;;3.55;1.60;;;;;;;18.52;80.95;101282.78;7359500;19;21875;-65
2023/05/07 10:13:46;;;;;;;3.03;1.63;;;;;;;18.55;80.92;101290.41;7359807;19;20499;-65
2023/05/07 10:16:14;;;;;;;5.43;2.30;;;;;;;18.59;80.28;101291.72;7353536;19;20026;-65
2023/05/07 10:18:41;;;;;;;3.55;2.03;;;;;;;18.56;79.96;101295.56;7313247;19;20521;-65
2023/05/07 10:21:17;;;;;;;4.95;2.05;;;;;;;18.58;80.39;101300.72;7346338;19;20019;-64
2023/05/07 10:23:49;;;;;;;3.22;1.55;;;;;;;18.59;80.66;101305.03;7348573;19;20021;-65
2023/05/07 10:26:20;;;;;;;;;;;;;;;18.59;80.29;101310.38;7348985;19;20043;-66
2023/05/07 10:28:54;;;;;;;3.30;1.58;;;;;;;18.59;80.01;101302.38;7350332;19;19922;-66
2023/05/07 10:31:25;;;;;;;2.40;1.10;;;;;;;18.66;79.39;101305.91;7349567;19;20026;-66
2023/05/07 10:33:56;;;;;;;1.80;0.90;;;;;;;18.72;78.82;101310.47;7352126;19;20015;-65
2023/05/07 10:36:25;;;;;;;1.77;0.82;;;;;;;18.80;77.47;101316.47;7353275;19;20315;-64
2023/05/07 10:38:52;;;;;;;2.28;0.70;;;;;;;18.87;77.21;101316.50;7354081;19;20624;-64
2023/05/07 10:41:20;;;;;;;2.25;0.88;;;;;;;18.90;77.01;101316.09;7349366;19;20176;-65
2023/05/07 10:43:48;;;;;;;1.73;0.70;;;;;;;18.92;76.39;101326.59;7352241;19;20022;-66
2023/05/07 10:46:16;;;;;;;2.55;0.88;;;;;;;18.94;77.15;101314.72;7352265;19;20014;-66
2023/05/07 10:48:50;;;;;;;1.92;0.80;;;;;;;19.02;77.15;101327.06;7353128;19;20216;-64
2023/05/07 10:51:20;;;;;;;1.60;0.70;;;;;;;19.08;75.95;101316.44;7351586;19;20606;-65
2023/05/07 10:53:47;;;;;;;2.22;0.60;;;;;;;19.18;75.20;101319.59;7348797;19;20922;-66
2023/05/07 10:56:18;;;;;;;1.77;0.85;;;;;;;19.32;74.53;101323.13;7352331;19;20109;-66
2023/05/07 10:58:46;;;;;;;2.50;1.08;;;;;;;19.39;73.67;101325.84;7355610;19;20073;-65
2023/05/07 11:01:14;;;;;;;5.15;2.03;;;;;;;19.40;74.18;101330.16;7351190;19;20040;-65
2023/05/07 11:04:04;;;;;;;17.20;7.25;;;;;;;19.39;74.89;101336.53;7347533;19;20138;-65
2023/05/07 11:06:34;;;;;;;4.07;1.80;;;;;;;19.43;74.89;101341.25;7352137;19;20011;-65
2023/05/07 11:09:01;;;;;;;33.97;14.23;;;;;;;19.53;74.53;101338.25;7357417;19;20024;-64
2023/05/07 11:11:44;;;;;;;4.03;2.13;;;;;;;19.65;75.19;101336.69;7355487;19;21827;-65
2023/05/07 11:14:34;;;;;;;4.70;1.83;;;;;;;19.78;73.57;101350.06;7353582;19;20014;-65
2023/05/07 11:17:03;;;;;;;18.70;7.82;;;;;;;19.85;73.30;101342.09;7350630;19;20098;-67
2023/05/07 11:19:41;;;;;;;3.70;1.40;;;;;;;19.92;72.58;101348.25;7353089;19;20590;-65
2023/05/07 11:22:32;;;;;;;3.75;1.58;;;;;;;20.00;72.58;101350.75;7354432;19;20014;-64
2023/05/07 11:25:01;;;;;;;6.90;2.20;;;;;;;20.03;73.28;101348.50;7351456;19;21639;-65